Time;durP1;ratioP1;P1;durP2;ratioP2;P2;SDS_P1;SDS_P2;PMS_P1;PMS_P2;Temp;Humidity;BMP_temperature;BMP_pressure;BME280_temperature;BME280_humidity;BME280_pressure;Samples;Min_cycle;Max_cycle;Signal;HPM_P1;HPM_P2
2023/03/06 00:01:26;;;;;;;28.00;13.90;;;;;;;-3.43;73.91;99180.02;130759;1256;107215;-73
2023/03/06 00:04:32;;;;;;;30.50;13.30;;;;;;;-3.26;73.75;99174.59;130801;1253;107541;-73
2023/03/06 00:07:38;;;;;;;30.60;14.20;;;;;;;-3.08;73.98;99174.05;130794;1256;108765;-73
2023/03/06 00:10:43;;;;;;;42.80;19.20;;;;;;;-2.91;73.96;99171.09;130828;1255;107524;-74
2023/03/06 00:13:49;;;;;;;54.10;17.60;;;;;;;-2.76;74.03;99166.02;130787;1256;107549;-74
2023/03/06 00:16:57;;;;;;;40.20;17.10;;;;;;;-2.64;74.03;99166.13;130772;1255;107758;-73
2023/03/06 00:20:03;;;;;;;38.50;16.20;;;;;;;-2.57;74.39;99163.94;130805;1253;107345;-72
2023/03/06 00:23:09;;;;;;;47.10;17.10;;;;;;;-2.53;74.02;99159.02;130841;1253;107276;-73
2023/03/06 00:26:15;;;;;;;39.50;16.60;;;;;;;-2.53;74.22;99158.64;130880;1255;107566;-73
2023/03/06 00:29:21;;;;;;;38.60;16.00;;;;;;;-2.51;74.28;99163.79;130815;1255;107574;-74
2023/03/06 00:32:27;;;;;;;38.20;16.80;;;;;;;-2.53;74.54;99161.77;130747;1256;106531;-71
2023/03/06 00:35:34;;;;;;;38.60;17.00;;;;;;;-2.57;74.13;99163.80;130857;1255;107393;-75
2023/03/06 00:38:40;;;;;;;37.80;16.30;;;;;;;-2.62;74.24;99168.45;130867;1253;107392;-73
2023/03/06 00:41:45;;;;;;;33.00;15.70;;;;;;;-2.65;74.26;99164.29;130851;1255;107538;-73
2023/03/06 00:44:51;;;;;;;31.60;14.70;;;;;;;-2.68;74.32;99162.39;130795;1257;107364;-74
2023/03/06 00:47:57;;;;;;;27.10;13.90;;;;;;;-2.69;74.55;99162.14;130820;1259;107537;-73
2023/03/06 00:51:03;;;;;;;30.30;14.80;;;;;;;-2.71;74.54;99161.70;130849;1257;107557;-73
2023/03/06 00:54:09;;;;;;;36.10;16.40;;;;;;;-2.75;74.38;99158.80;130849;1255;107486;-74
2023/03/06 00:57:14;;;;;;;38.20;16.20;;;;;;;-2.77;74.37;99155.81;130805;1257;107673;-72
2023/03/06 01:00:21;;;;;;;27.00;13.40;;;;;;;-2.80;74.56;99153.70;130771;1253;107560;-73
2023/03/06 01:03:28;;;;;;;32.00;12.90;;;;;;;-2.79;74.60;99155.55;130713;1258;107579;-73
2023/03/06 01:06:33;;;;;;;31.40;14.20;;;;;;;-2.75;74.43;99149.76;130626;1258;110329;-73
2023/03/06 01:09:42;;;;;;;38.70;19.80;;;;;;;-2.72;74.45;99147.98;130668;1258;107562;-74
2023/03/06 01:12:47;;;;;;;59.70;18.80;;;;;;;-2.72;74.15;99141.41;130747;1257;107548;-73
2023/03/06 01:15:53;;;;;;;38.60;15.90;;;;;;;-2.76;74.36;99146.13;130790;1258;107509;-75
2023/03/06 01:19:00;;;;;;;37.60;15.70;;;;;;;-2.78;74.26;99150.49;130533;1257;107630;-73
2023/03/06 01:22:06;;;;;;;31.50;13.90;;;;;;;-2.86;73.79;99148.68;130552;1253;107373;-72
2023/03/06 01:25:12;;;;;;;31.40;14.30;;;;;;;-2.91;74.17;99148.66;130693;1258;107573;-74
2023/03/06 01:28:18;;;;;;;33.80;15.10;;;;;;;-2.98;74.29;99153.65;130725;1258;107571;-72
2023/03/06 01:31:24;;;;;;;30.20;14.90;;;;;;;-3.06;74.35;99151.38;130669;1261;107553;-73
2023/03/06 01:34:29;;;;;;;28.90;13.80;;;;;;;-3.13;74.41;99150.55;130761;1257;107621;-73
2023/03/06 01:37:36;;;;;;;29.70;14.40;;;;;;;-3.19;74.24;99151.23;130759;1258;107562;-75
2023/03/06 01:40:42;;;;;;;51.10;19.10;;;;;;;-3.25;74.66;99151.61;130624;1257;107504;-74
2023/03/06 01:43:48;;;;;;;51.00;18.10;;;;;;;-3.31;74.42;99150.04;130741;1258;107518;-73
2023/03/06 01:46:54;;;;;;;35.50;15.20;;;;;;;-3.37;74.43;99141.19;130703;1258;107541;-74
2023/03/06 01:50:03;;;;;;;44.40;17.00;;;;;;;-3.42;74.64;99139.43;130744;1257;107504;-73
2023/03/06 01:53:10;;;;;;;41.20;16.50;;;;;;;-3.47;74.53;99140.08;130711;1260;107553;-73
2023/03/06 01:56:16;;;;;;;34.40;14.40;;;;;;;-3.51;74.43;99136.67;130692;1258;107589;-73
2023/03/06 01:59:25;;;;;;;27.80;14.20;;;;;;;-3.57;74.52;99136.16;130707;1261;106458;-74
2023/03/06 02:02:31;;;;;;;28.20;13.60;;;;;;;-3.60;74.65;99138.38;130781;1258;107543;-74
2023/03/06 02:05:37;;;;;;;29.60;13.70;;;;;;;-3.59;74.64;99139.41;130716;1257;107672;-73
2023/03/06 02:08:42;;;;;;;35.40;14.20;;;;;;;-3.57;74.60;99140.64;130533;1253;107549;-75
2023/03/06 02:11:48;;;;;;;30.20;13.90;;;;;;;-3.51;74.77;99138.75;130643;1257;107583;-73
2023/03/06 02:14:54;;;;;;;27.30;13.70;;;;;;;-3.45;74.71;99140.14;130566;1258;107677;-75
2023/03/06 02:18:01;;;;;;;30.90;15.10;;;;;;;-3.41;74.85;99135.91;130592;1258;107421;-73
2023/03/06 02:21:13;;;;;;;30.50;14.10;;;;;;;-3.41;74.75;99135.71;130596;1257;107613;-73
2023/03/06 02:24:35;;;;;;;28.60;14.10;;;;;;;-3.44;74.75;99130.71;130616;1268;105494;-73
2023/03/06 02:27:41;;;;;;;32.00;14.30;;;;;;;-3.48;74.43;99136.52;130621;1259;105811;-72
2023/03/06 02:30:48;;;;;;;32.80;15.90;;;;;;;-3.52;74.50;99135.31;130565;1253;107239;-72
2023/03/06 02:34:05;;;;;;;28.60;13.70;;;;;;;-3.55;74.48;99138.98;130595;1260;108194;-73
2023/03/06 02:37:12;;;;;;;29.90;13.80;;;;;;;-3.63;74.36;99134.04;130599;1258;107482;-72
2023/03/06 02:40:20;;;;;;;31.50;14.80;;;;;;;-3.68;74.36;99137.16;130727;1258;107575;-72
2023/03/06 02:43:31;;;;;;;27.20;13.80;;;;;;;-3.75;74.39;99133.02;130752;1253;107561;-75
2023/03/06 02:46:37;;;;;;;31.30;13.50;;;;;;;-3.83;74.30;99134.16;130608;1258;107565;-73
2023/03/06 02:49:42;;;;;;;29.30;14.10;;;;;;;-3.89;74.10;99129.52;130530;1259;107555;-72
2023/03/06 02:52:48;;;;;;;29.40;13.40;;;;;;;-3.95;73.90;99128.98;130635;1255;107272;-73
2023/03/06 02:55:54;;;;;;;25.30;12.60;;;;;;;-4.03;73.63;99125.07;130579;1253;107646;-74
2023/03/06 02:59:00;;;;;;;26.40;13.60;;;;;;;-4.10;73.56;99124.27;130567;1260;107390;-73
2023/03/06 03:02:06;;;;;;;25.30;12.50;;;;;;;-4.19;73.56;99121.16;130760;1258;107582;-73
2023/03/06 03:05:13;;;;;;;30.00;12.90;;;;;;;-4.25;73.58;99118.56;130670;1258;108630;-72
2023/03/06 03:08:20;;;;;;;34.00;14.20;;;;;;;-4.33;73.28;99116.20;130686;1259;107590;-74
2023/03/06 03:11:27;;;;;;;40.20;17.00;;;;;;;-4.40;73.19;99116.96;130664;1258;107492;-73
2023/03/06 03:14:33;;;;;;;32.10;14.90;;;;;;;-4.46;72.94;99119.23;130542;1261;107607;-73
2023/03/06 03:17:42;;;;;;;26.60;12.90;;;;;;;-4.52;72.73;99118.48;130755;1259;107741;-73
2023/03/06 03:20:48;;;;;;;26.30;12.20;;;;;;;-4.57;72.67;99115.33;130732;1253;107261;-71
2023/03/06 03:23:54;;;;;;;26.10;11.60;;;;;;;-4.63;72.58;99112.52;130469;1261;107386;-72
2023/03/06 03:26:59;;;;;;;26.20;11.50;;;;;;;-4.70;72.42;99114.85;130757;1257;106077;-73
2023/03/06 03:30:07;;;;;;;26.10;11.80;;;;;;;-4.82;72.09;99113.89;130701;1257;107227;-73
2023/03/06 03:33:14;;;;;;;26.80;10.90;;;;;;;-4.90;72.07;99106.52;130807;1258;108696;-73
2023/03/06 03:36:21;;;;;;;25.40;11.20;;;;;;;-4.97;71.81;99109.34;130762;1258;107458;-73
2023/03/06 03:39:28;;;;;;;24.10;11.30;;;;;;;-5.07;71.83;99106.77;130771;1258;107535;-72
2023/03/06 03:42:33;;;;;;;24.10;11.00;;;;;;;-5.13;71.77;99108.98;130574;1261;107491;-73
2023/03/06 03:45:41;;;;;;;26.00;11.70;;;;;;;-5.18;71.70;99106.46;130527;1257;107234;-73
2023/03/06 03:48:47;;;;;;;22.10;11.00;;;;;;;-5.22;71.53;99104.44;130738;1259;107121;-73
2023/03/06 03:51:52;;;;;;;24.70;10.80;;;;;;;-5.30;71.50;99104.70;130702;1253;107542;-74
2023/03/06 03:54:59;;;;;;;24.00;10.70;;;;;;;-5.38;71.43;99102.88;130798;1259;107484;-73
2023/03/06 03:58:05;;;;;;;24.50;11.80;;;;;;;-5.45;71.41;99103.61;130791;1257;107545;-74
2023/03/06 04:01:11;;;;;;;25.70;11.50;;;;;;;-5.51;71.12;99101.11;130688;1259;107592;-72
2023/03/06 04:04:17;;;;;;;25.80;11.10;;;;;;;-5.56;71.18;99100.69;130755;1253;107642;-72
2023/03/06 04:07:23;;;;;;;23.80;10.80;;;;;;;-5.62;71.05;99099.95;130784;1258;108295;-71
2023/03/06 04:10:29;;;;;;;25.90;12.10;;;;;;;-5.69;70.80;99099.10;130777;1255;107524;-72
2023/03/06 04:13:36;;;;;;;30.40;13.50;;;;;;;-5.79;70.65;99096.84;130751;1259;107561;-74
2023/03/06 04:16:42;;;;;;;27.60;12.20;;;;;;;-5.85;70.97;99093.85;130625;1258;107525;-74
2023/03/06 04:19:48;;;;;;;27.00;12.30;;;;;;;-5.91;70.82;99100.24;130665;1259;107563;-73
2023/03/06 04:22:55;;;;;;;28.40;13.40;;;;;;;-6.00;70.87;99102.42;130532;1260;108790;-72
2023/03/06 04:26:01;;;;;;;28.70;13.00;;;;;;;-6.04;70.47;99102.66;130764;1257;108657;-72
2023/03/06 04:29:07;;;;;;;27.10;11.70;;;;;;;-6.09;70.42;99099.98;130791;1257;107549;-73
2023/03/06 04:32:13;;;;;;;25.90;11.80;;;;;;;-6.13;70.45;99095.10;130765;1259;108709;-73
2023/03/06 04:35:19;;;;;;;26.60;11.70;;;;;;;-6.15;70.06;99094.19;130601;1259;107515;-71
2023/03/06 04:38:32;;;;;;;26.20;10.70;;;;;;;-6.19;70.04;99089.88;130649;1256;132808;-73
2023/03/06 04:41:40;;;;;;;27.50;11.30;;;;;;;-6.19;70.03;99085.07;130756;1256;107547;-75
2023/03/06 04:44:46;;;;;;;31.30;14.50;;;;;;;-6.23;70.18;99083.84;130770;1256;107541;-72
2023/03/06 04:47:52;;;;;;;36.30;16.60;;;;;;;-6.28;70.18;99087.08;130749;1263;108642;-74
2023/03/06 04:50:58;;;;;;;32.40;14.20;;;;;;;-6.35;69.95;99089.27;130735;1256;108159;-73
2023/03/06 04:54:04;;;;;;;27.00;12.50;;;;;;;-6.36;69.75;99081.58;130746;1256;107542;-74
2023/03/06 04:57:10;;;;;;;27.00;12.50;;;;;;;-6.37;69.76;99078.84;130811;1259;107548;-71
2023/03/06 05:00:18;;;;;;;32.40;12.10;;;;;;;-6.38;69.82;99080.27;130834;1263;107541;-73
2023/03/06 05:03:24;;;;;;;34.30;13.40;;;;;;;-6.39;69.73;99080.29;130846;1257;107286;-72
2023/03/06 05:06:30;;;;;;;29.90;12.80;;;;;;;-6.37;69.79;99082.09;130815;1257;107550;-74
2023/03/06 05:09:36;;;;;;;33.80;13.50;;;;;;;-6.36;69.79;99083.47;130828;1254;107427;-73
2023/03/06 05:12:42;;;;;;;30.00;13.10;;;;;;;-6.39;69.62;99082.73;130843;1259;107522;-73
2023/03/06 05:15:48;;;;;;;31.20;12.90;;;;;;;-6.38;69.90;99077.98;130774;1256;106573;-72
2023/03/06 05:18:54;;;;;;;32.70;13.50;;;;;;;-6.35;69.88;99080.29;130870;1255;107567;-78
2023/03/06 05:22:00;;;;;;;34.20;14.90;;;;;;;-6.37;69.65;99079.85;130857;1259;107540;-74
2023/03/06 05:25:07;;;;;;;36.70;14.80;;;;;;;-6.36;69.75;99075.86;130994;1253;107377;-75
2023/03/06 05:28:12;;;;;;;33.60;14.20;;;;;;;-6.32;69.55;99075.13;130902;1256;106582;-75
2023/03/06 05:31:18;;;;;;;31.00;13.40;;;;;;;-6.27;69.75;99075.07;131000;1257;108699;-72
2023/03/06 05:34:24;;;;;;;33.80;13.70;;;;;;;-6.22;69.78;99076.89;130733;1257;108664;-76
2023/03/06 05:37:30;;;;;;;35.10;14.30;;;;;;;-6.17;69.93;99078.73;130784;1253;107312;-75
2023/03/06 05:40:35;;;;;;;35.00;14.50;;;;;;;-6.09;69.97;99077.60;130762;1258;106541;-74
2023/03/06 05:43:41;;;;;;;34.90;14.90;;;;;;;-5.96;70.41;99073.46;130815;1259;107645;-75
2023/03/06 05:46:48;;;;;;;35.10;14.30;;;;;;;-5.79;70.67;99073.98;130976;1253;105437;-74
2023/03/06 05:49:54;;;;;;;38.80;15.40;;;;;;;-5.60;70.59;99070.76;130970;1251;107543;-76
2023/03/06 05:53:00;;;;;;;40.50;16.10;;;;;;;-5.41;70.40;99070.80;130875;1256;107512;-75
2023/03/06 05:56:08;;;;;;;37.30;16.00;;;;;;;-5.20;70.78;99070.03;131042;1256;107558;-76
2023/03/06 05:59:14;;;;;;;37.10;14.90;;;;;;;-5.01;70.82;99067.41;130853;1256;105828;-75
2023/03/06 06:02:20;;;;;;;31.00;15.10;;;;;;;-4.81;71.09;99067.70;130801;1257;107491;-75
2023/03/06 06:05:26;;;;;;;33.50;15.70;;;;;;;-4.62;71.25;99067.20;130792;1256;107557;-76
2023/03/06 06:08:32;;;;;;;28.90;15.70;;;;;;;-4.45;71.57;99067.77;130822;1259;108644;-77
2023/03/06 06:11:38;;;;;;;32.70;16.20;;;;;;;-4.24;71.60;99067.63;130871;1259;107529;-74
2023/03/06 06:14:44;;;;;;;28.20;14.70;;;;;;;-4.01;71.61;99069.56;130860;1253;107433;-75
2023/03/06 06:17:49;;;;;;;36.60;16.00;;;;;;;-3.75;71.88;99069.96;130840;1254;107393;-75
2023/03/06 06:20:55;;;;;;;36.50;15.60;;;;;;;-3.49;71.84;99062.12;130830;1253;107513;-75
2023/03/06 06:24:00;;;;;;;36.60;16.70;;;;;;;-3.28;72.09;99060.84;130770;1256;107528;-75
2023/03/06 06:27:07;;;;;;;39.60;18.70;;;;;;;-3.09;72.16;99054.98;130864;1255;107524;-73
2023/03/06 06:30:14;;;;;;;35.80;17.70;;;;;;;-2.92;72.31;99051.80;130772;1256;106576;-74
2023/03/06 06:33:20;;;;;;;40.50;19.60;;;;;;;-2.79;72.64;99050.08;130964;1256;107473;-74
2023/03/06 06:36:25;;;;;;;37.60;19.60;;;;;;;-2.63;73.01;99051.57;130961;1262;108662;-74
2023/03/06 06:39:31;;;;;;;37.00;18.60;;;;;;;-2.46;73.04;99047.80;130887;1266;107666;-75
2023/03/06 06:42:37;;;;;;;36.10;18.80;;;;;;;-2.28;73.35;99048.74;130884;1259;107499;-76
2023/03/06 06:45:43;;;;;;;34.70;18.60;;;;;;;-2.14;73.72;99041.55;130758;1254;107472;-76
2023/03/06 06:48:53;;;;;;;38.40;18.50;;;;;;;-2.02;73.69;99042.08;130746;1254;108621;-74
2023/03/06 06:51:59;;;;;;;76.90;29.40;;;;;;;-1.94;73.76;99038.28;130742;1256;107498;-75
2023/03/06 06:55:05;;;;;;;50.00;22.00;;;;;;;-1.86;73.69;99039.81;130790;1267;107521;-76
2023/03/06 06:58:11;;;;;;;41.00;19.80;;;;;;;-1.73;73.85;99038.77;130851;1256;107551;-77
2023/03/06 07:01:16;;;;;;;83.10;33.20;;;;;;;-1.61;74.05;99031.51;130814;1255;107555;-75
2023/03/06 07:04:22;;;;;;;48.90;21.90;;;;;;;-1.48;74.39;99033.20;130886;1255;107638;-76
2023/03/06 07:07:28;;;;;;;182.50;61.00;;;;;;;-1.37;74.26;99030.15;130744;1255;108643;-76
2023/03/06 07:10:34;;;;;;;48.40;21.60;;;;;;;-1.27;74.48;99034.20;130759;1267;107517;-78
2023/03/06 07:13:40;;;;;;;42.00;19.80;;;;;;;-1.17;74.77;99033.48;130855;1267;107466;-77
2023/03/06 07:16:46;;;;;;;48.10;20.00;;;;;;;-1.05;74.74;99032.99;130812;1257;107526;-74
2023/03/06 07:19:51;;;;;;;70.40;27.90;;;;;;;-0.88;74.68;99030.17;130789;1256;107153;-74
2023/03/06 07:22:57;;;;;;;84.00;34.50;;;;;;;-0.69;74.77;99031.65;130775;1259;107542;-75
2023/03/06 07:26:03;;;;;;;51.40;25.10;;;;;;;-0.47;74.76;99028.99;130700;1256;107543;-75
2023/03/06 07:29:08;;;;;;;59.70;27.80;;;;;;;-0.21;74.84;99028.46;130670;1266;107553;-77
2023/03/06 07:32:14;;;;;;;48.30;24.20;;;;;;;0.02;74.84;99024.47;130579;1264;107621;-76
2023/03/06 07:35:20;;;;;;;48.40;24.60;;;;;;;0.22;74.93;99023.39;130562;1259;108671;-76
2023/03/06 07:38:25;;;;;;;44.30;21.60;;;;;;;0.41;74.87;99015.46;130616;1259;107505;-75
2023/03/06 07:41:31;;;;;;;39.70;21.40;;;;;;;0.55;74.89;99014.55;130661;1259;107254;-75
2023/03/06 07:44:39;;;;;;;37.20;19.20;;;;;;;0.68;75.01;99010.42;130700;1266;107527;-75
2023/03/06 07:47:45;;;;;;;115.50;44.90;;;;;;;0.79;75.15;99009.23;130814;1257;107617;-77
2023/03/06 07:50:58;;;;;;;224.10;78.40;;;;;;;0.95;75.04;99010.60;130883;1257;107682;-75
2023/03/06 07:54:04;;;;;;;342.60;107.30;;;;;;;1.04;75.14;99012.45;130842;1261;107623;-76
2023/03/06 07:57:10;;;;;;;81.00;32.70;;;;;;;1.10;75.20;99009.52;130675;1256;107549;-74
2023/03/06 08:00:17;;;;;;;58.60;25.30;;;;;;;1.18;75.20;99005.20;130760;1257;107430;-77
2023/03/06 08:03:23;;;;;;;218.20;71.00;;;;;;;1.30;75.09;99003.95;130872;1260;106295;-74
2023/03/06 08:06:29;;;;;;;84.10;34.00;;;;;;;1.45;75.24;99008.27;130730;1254;107437;-77
2023/03/06 08:09:36;;;;;;;157.20;61.00;;;;;;;1.62;75.16;99007.45;130731;1259;107600;-76
2023/03/06 08:12:41;;;;;;;72.70;40.80;;;;;;;1.79;75.20;98997.08;130778;1257;107617;-75
2023/03/06 08:15:58;;;;;;;43.20;22.50;;;;;;;1.98;75.15;98993.07;130872;1264;107564;-79
2023/03/06 08:19:05;;;;;;;124.10;50.80;;;;;;;2.20;75.16;98993.28;130835;1257;109748;-75
2023/03/06 08:22:12;;;;;;;62.80;29.90;;;;;;;2.38;75.05;98983.50;130831;1258;107670;-75
2023/03/06 08:25:31;;;;;;;46.70;25.40;;;;;;;2.57;74.87;98982.40;130906;1257;109361;-77
2023/03/06 08:28:47;;;;;;;45.90;25.50;;;;;;;2.70;74.73;98985.27;130884;1256;108684;-78
2023/03/06 08:31:55;;;;;;;41.00;22.70;;;;;;;2.74;74.60;98981.40;130641;1267;107559;-76
2023/03/06 08:35:02;;;;;;;43.60;26.40;;;;;;;2.79;74.30;98990.34;130755;1257;107614;-76
2023/03/06 08:38:07;;;;;;;39.10;21.40;;;;;;;2.78;74.56;98984.85;130806;1266;107479;-76
2023/03/06 08:41:14;;;;;;;73.90;36.50;;;;;;;2.80;74.59;98982.91;130785;1256;107606;-78
2023/03/06 08:44:20;;;;;;;46.90;24.20;;;;;;;2.82;74.48;98982.64;130759;1267;107544;-77
2023/03/06 08:47:25;;;;;;;48.90;28.30;;;;;;;2.85;74.67;98983.29;130798;1257;107384;-75
2023/03/06 08:50:31;;;;;;;38.10;21.80;;;;;;;2.89;74.59;98975.20;130760;1266;107486;-75
2023/03/06 08:53:37;;;;;;;36.40;21.30;;;;;;;2.92;74.50;98979.50;130772;1257;107550;-76
2023/03/06 08:56:43;;;;;;;43.00;22.40;;;;;;;3.01;74.44;98981.04;130697;1257;107496;-73
2023/03/06 08:59:48;;;;;;;40.70;23.50;;;;;;;3.02;74.29;98982.69;130769;1258;107930;-74
2023/03/06 09:02:54;;;;;;;41.70;22.90;;;;;;;3.03;74.25;98982.60;130758;1264;107391;-74
2023/03/06 09:06:00;;;;;;;36.60;21.10;;;;;;;3.07;74.57;98985.20;130753;1266;106527;-76
2023/03/06 09:09:06;;;;;;;39.50;21.60;;;;;;;3.11;74.41;98979.91;130858;1259;108114;-72
2023/03/06 09:12:12;;;;;;;36.80;21.80;;;;;;;3.16;74.41;98981.73;130837;1256;107701;-73
2023/03/06 09:15:19;;;;;;;33.90;19.90;;;;;;;3.19;74.05;98983.16;130836;1265;107486;-75
2023/03/06 09:18:25;;;;;;;30.10;18.40;;;;;;;3.18;74.22;98978.82;130838;1266;108663;-74
2023/03/06 09:21:30;;;;;;;33.70;19.70;;;;;;;3.15;74.29;98978.13;130840;1259;107570;-74
2023/03/06 09:24:36;;;;;;;31.90;19.00;;;;;;;3.12;73.94;98974.05;130791;1257;105920;-75
2023/03/06 09:27:42;;;;;;;31.50;19.10;;;;;;;3.11;74.04;98970.63;130840;1264;108718;-74
2023/03/06 09:30:48;;;;;;;30.30;18.10;;;;;;;3.14;74.04;98975.40;130781;1259;105688;-74
2023/03/06 09:33:54;;;;;;;33.20;20.40;;;;;;;3.20;74.14;98972.31;130836;1266;107539;-73
2023/03/06 09:37:01;;;;;;;33.50;20.40;;;;;;;3.24;74.04;98970.56;130805;1267;107500;-78
2023/03/06 09:40:12;;;;;;;30.60;18.10;;;;;;;3.25;74.05;98968.54;130745;1257;107518;-76
2023/03/06 09:43:24;;;;;;;30.80;17.60;;;;;;;3.32;74.08;98966.13;130823;1267;107531;-74
2023/03/06 09:46:40;;;;;;;27.10;16.60;;;;;;;3.35;73.91;98967.92;130854;1257;107552;-75
2023/03/06 09:50:00;;;;;;;24.00;13.50;;;;;;;3.39;73.65;98966.17;130757;1255;106177;-74
2023/03/06 09:53:28;;;;;;;16.50;9.20;;;;;;;3.31;73.23;98962.32;130767;1265;106741;-75
2023/03/06 09:56:36;;;;;;;15.10;9.30;;;;;;;3.21;73.40;98954.11;130808;1258;107570;-74
2023/03/06 09:59:48;;;;;;;18.00;10.60;;;;;;;3.22;73.35;98949.64;130799;1266;107500;-76
2023/03/06 10:03:00;;;;;;;21.90;12.80;;;;;;;3.24;73.39;98946.59;130780;1256;107535;-74
2023/03/06 10:06:13;;;;;;;22.00;13.40;;;;;;;3.25;73.42;98946.39;130806;1256;107245;-74
2023/03/06 10:09:24;;;;;;;29.40;15.80;;;;;;;3.25;73.62;98944.77;130782;1257;107694;-76
2023/03/06 10:12:36;;;;;;;24.40;14.80;;;;;;;3.22;73.47;98942.61;130853;1257;107518;-76
2023/03/06 10:15:45;;;;;;;20.70;12.10;;;;;;;3.16;73.30;98936.63;130768;1254;107252;-79
2023/03/06 10:18:51;;;;;;;22.10;12.90;;;;;;;3.21;73.49;98934.43;130820;1254;107276;-78
2023/03/06 10:22:02;;;;;;;18.30;12.30;;;;;;;3.26;73.45;98927.48;130758;1266;107630;-76
2023/03/06 10:25:17;;;;;;;22.00;13.60;;;;;;;3.29;73.69;98920.17;130824;1257;107574;-76
2023/03/06 10:28:28;;;;;;;19.00;12.30;;;;;;;3.30;73.58;98921.45;130771;1256;107705;-75
2023/03/06 10:31:35;;;;;;;23.40;13.80;;;;;;;3.36;73.72;98916.02;130772;1259;107505;-76
2023/03/06 10:34:43;;;;;;;25.70;14.50;;;;;;;3.39;73.62;98909.23;130766;1259;108137;-75
2023/03/06 10:37:49;;;;;;;20.60;13.40;;;;;;;3.37;73.78;98908.53;130806;1266;107529;-77
2023/03/06 10:41:08;;;;;;;20.50;13.10;;;;;;;3.37;73.51;98905.33;130841;1254;107541;-74
2023/03/06 10:44:22;;;;;;;23.20;13.70;;;;;;;3.39;73.86;98893.27;130889;1258;107889;-76
2023/03/06 10:47:33;;;;;;;20.50;12.70;;;;;;;3.37;73.67;98897.69;130820;1257;105326;-74
2023/03/06 10:50:39;;;;;;;20.70;12.00;;;;;;;3.33;73.87;98900.83;130835;1266;107552;-75
2023/03/06 10:53:54;;;;;;;22.00;12.90;;;;;;;3.38;73.95;98892.06;130826;1259;107623;-74
2023/03/06 10:57:17;;;;;;;34.20;18.80;;;;;;;3.47;73.80;98867.35;130823;1257;107395;-76
2023/03/06 11:00:34;;;;;;;69.90;39.70;;;;;;;3.39;73.79;98884.24;130777;1261;107677;-76
2023/03/06 11:03:40;;;;;;;38.40;23.30;;;;;;;3.43;73.84;98879.48;130832;1258;107754;-75
2023/03/06 11:06:46;;;;;;;27.60;17.60;;;;;;;3.48;73.90;98882.02;130772;1267;108676;-75
2023/03/06 11:10:15;;;;;;;33.00;20.80;;;;;;;3.51;73.72;98873.98;130925;1257;107554;-75
2023/03/06 11:13:24;;;;;;;24.70;15.80;;;;;;;3.51;73.93;98872.39;130703;1254;106632;-78
2023/03/06 11:16:31;;;;;;;24.90;17.10;;;;;;;3.51;73.88;98862.91;130794;1257;105906;-80
2023/03/06 11:19:36;;;;;;;24.20;15.30;;;;;;;3.52;73.88;98857.73;130682;1254;107408;-77
2023/03/06 11:22:45;;;;;;;37.00;20.90;;;;;;;3.51;73.96;98850.05;130572;1259;107609;-76
2023/03/06 11:25:55;;;;;;;58.50;27.80;;;;;;;3.50;74.08;98841.89;130547;1257;107488;-77
2023/03/06 11:29:12;;;;;;;47.60;23.00;;;;;;;3.48;73.79;98837.56;130654;1257;108003;-75
2023/03/06 11:32:23;;;;;;;39.30;20.50;;;;;;;3.41;73.85;98831.20;130564;1257;107123;-76
2023/03/06 11:35:34;;;;;;;212.80;71.40;;;;;;;3.36;73.92;98831.99;130792;1257;107579;-77
2023/03/06 11:38:47;;;;;;;106.40;41.40;;;;;;;3.37;74.10;98830.85;130866;1259;107586;-77
2023/03/06 11:42:03;;;;;;;79.60;34.10;;;;;;;3.39;74.20;98832.03;130742;1260;107379;-77
2023/03/06 11:45:26;;;;;;;46.80;25.80;;;;;;;3.39;74.16;98827.90;130901;1256;107502;-74
2023/03/06 11:48:38;;;;;;;61.40;36.80;;;;;;;3.39;74.24;98822.93;130796;1256;108672;-74
2023/03/06 11:51:51;;;;;;;30.10;19.10;;;;;;;3.40;74.18;98821.40;130813;1256;107602;-74
2023/03/06 11:54:58;;;;;;;24.80;15.80;;;;;;;3.42;74.40;98824.58;130761;1255;107635;-74
2023/03/06 11:58:28;;;;;;;28.00;18.30;;;;;;;3.51;74.27;98822.85;130781;1257;105553;-74
2023/03/06 12:01:40;;;;;;;31.70;18.40;;;;;;;3.63;74.31;98816.67;130783;1257;105610;-74
2023/03/06 12:04:53;;;;;;;25.80;16.90;;;;;;;3.68;74.42;98810.69;130815;1254;107374;-74
2023/03/06 12:08:08;;;;;;;25.90;17.60;;;;;;;3.74;74.39;98807.19;130808;1257;107457;-73
2023/03/06 12:11:20;;;;;;;39.90;24.60;;;;;;;3.81;74.43;98806.99;130882;1263;107248;-73
2023/03/06 12:14:42;;;;;;;32.70;21.00;;;;;;;3.92;74.57;98803.39;130813;1257;106582;-72
2023/03/06 12:18:16;;;;;;;29.20;19.80;;;;;;;4.04;74.58;98804.04;130679;1253;107993;-73
2023/03/06 12:21:31;;;;;;;31.60;20.20;;;;;;;4.13;74.48;98803.61;130776;1256;107681;-73
2023/03/06 12:25:00;;;;;;;28.70;20.20;;;;;;;4.24;74.67;98801.69;130803;1255;107542;-74
2023/03/06 12:28:31;;;;;;;29.50;19.90;;;;;;;4.37;74.58;98799.98;130584;1255;107423;-73
2023/03/06 12:31:51;;;;;;;28.10;19.80;;;;;;;4.48;74.51;98799.23;130586;1257;107676;-74
2023/03/06 12:35:17;;;;;;;25.40;18.40;;;;;;;4.59;74.69;98796.42;130737;1266;107435;-73
2023/03/06 12:38:45;;;;;;;27.10;18.50;;;;;;;4.70;74.68;98796.54;130778;1257;108494;-74
2023/03/06 12:42:11;;;;;;;40.60;19.90;;;;;;;4.76;74.62;98795.04;130781;1266;107532;-73
2023/03/06 12:45:31;;;;;;;27.50;16.10;;;;;;;4.85;74.74;98794.34;130827;1257;107591;-73
2023/03/06 12:48:44;;;;;;;125.40;64.80;;;;;;;4.93;74.70;98798.31;130767;1258;107601;-74
2023/03/06 12:51:51;;;;;;;313.30;127.60;;;;;;;5.02;74.62;98797.23;130717;1261;107107;-73
2023/03/06 12:54:58;;;;;;;540.20;222.00;;;;;;;5.06;74.51;98792.73;130742;1258;107542;-73
2023/03/06 12:58:35;;;;;;;647.70;239.00;;;;;;;5.04;74.54;98793.65;131477;1254;107560;-74
2023/03/06 13:01:58;;;;;;;659.40;235.50;;;;;;;5.04;74.48;98789.30;130925;1257;107566;-75
2023/03/06 13:05:26;;;;;;;817.30;284.20;;;;;;;5.08;74.35;98789.15;130951;1256;108681;-76
2023/03/06 13:09:07;;;;;;;1242.20;422.80;;;;;;;5.19;74.66;98784.77;131077;1254;107544;-74
2023/03/06 13:12:27;;;;;;;386.20;108.40;;;;;;;5.24;74.47;98786.74;130958;1254;106540;-74
2023/03/06 13:15:42;;;;;;;460.30;127.90;;;;;;;5.24;74.61;98786.25;131002;1255;107493;-77
2023/03/06 13:18:56;;;;;;;212.50;56.80;;;;;;;5.16;74.30;98788.46;131191;1256;106644;-75
2023/03/06 13:22:22;;;;;;;263.60;83.60;;;;;;;5.02;74.03;98787.15;131112;1256;107687;-74
2023/03/06 13:25:48;;;;;;;421.60;142.80;;;;;;;4.89;74.16;98786.23;131144;1253;107539;-75
2023/03/06 13:28:56;;;;;;;348.70;109.10;;;;;;;4.75;74.37;98783.56;131324;1255;107780;-75
2023/03/06 13:32:17;;;;;;;532.80;207.00;;;;;;;4.69;74.49;98786.74;130968;1253;105811;-73
2023/03/06 13:35:52;;;;;;;303.00;110.50;;;;;;;4.68;74.64;98784.95;130940;1257;107281;-74
2023/03/06 13:39:06;;;;;;;232.30;88.30;;;;;;;4.70;74.51;98787.91;130931;1257;108671;-74
2023/03/06 13:42:28;;;;;;;414.80;182.40;;;;;;;4.77;74.60;98783.48;131143;1256;107532;-74
2023/03/06 13:45:37;;;;;;;129.60;58.00;;;;;;;4.83;74.48;98784.71;130876;1256;107358;-72
2023/03/06 13:48:44;;;;;;;112.30;64.10;;;;;;;4.86;74.21;98784.77;131146;1259;107563;-73
2023/03/06 13:52:08;;;;;;;34.40;20.50;;;;;;;4.87;74.37;98789.73;131010;1253;108677;-74
2023/03/06 13:55:24;;;;;;;29.30;19.60;;;;;;;4.90;74.40;98791.23;131875;1256;107821;-74
2023/03/06 13:58:43;;;;;;;26.00;19.60;;;;;;;4.96;74.61;98788.55;131204;1253;106255;-74
2023/03/06 14:02:00;;;;;;;21.20;16.00;;;;;;;4.98;74.42;98789.00;131128;1256;107565;-74
2023/03/06 14:05:12;;;;;;;35.30;24.20;;;;;;;4.99;74.74;98787.33;131013;1257;107958;-77
2023/03/06 14:08:21;;;;;;;19.30;14.50;;;;;;;4.96;74.59;98784.60;130937;1254;107280;-76
2023/03/06 14:11:28;;;;;;;36.70;21.50;;;;;;;4.95;74.65;98782.20;131036;1256;107547;-73
2023/03/06 14:14:42;;;;;;;27.10;17.20;;;;;;;4.91;74.60;98778.93;130781;1253;107352;-77